This is the latest recevied weather packets stored in our database for station/object SP4MAZ-13. If no packets are shown the sender has not sent any weather packets the latest 10 day(s).
| Time | Temp. | Humidity | Pressure | Rain* | Wind** | Luminosity | Snow |
|---|---|---|---|---|---|---|---|
| 1777872860 | 19.44° C | 39% | 2147.4 hPa | - | - | - | - |
| 1777872556 | 19.44° C | 39% | 2147.4 hPa | - | - | - | - |
| 1777872253 | 18.89° C | 40% | 2147.4 hPa | - | - | - | - |
| 1777871952 | 18.89° C | 39% | 2147.4 hPa | - | - | - | - |
| 1777871648 | 18.89° C | 41% | 2147.4 hPa | - | - | - | - |
| 1777871347 | 18.33° C | 40% | 2147.4 hPa | - | - | - | - |
| 1777871043 | 18.33° C | 42% | 2147.4 hPa | - | - | - | - |
| 1777870740 | 18.33° C | 42% | 2147.4 hPa | - | - | - | - |
| 1777870437 | 17.78° C | 42% | 2147.4 hPa | - | - | - | - |
| 1777870133 | 17.78° C | 42% | 2147.4 hPa | - | - | - | - |
| 1777869830 | 17.22° C | 44% | 2147.4 hPa | - | - | - | - |
| 1777869526 | 17.22° C | 43% | 2147.4 hPa | - | - | - | - |
| 1777869223 | 16.11° C | 46% | 2147.4 hPa | - | - | - | - |
| 1777868920 | 16.67° C | 44% | 2147.4 hPa | - | - | - | - |
| 1777868617 | 15.56° C | 46% | 2147.4 hPa | - | - | - | - |
| 1777868313 | 15° C | 49% | 2147.4 hPa | - | - | - | - |
| 1777868009 | 14.44° C | 50% | 2147.4 hPa | - | - | - | - |
| 1777867706 | 13.33° C | 52% | 2147.4 hPa | - | - | - | - |
| 1777867099 | 11.67° C | 57% | 2147.4 hPa | - | - | - | - |
| 1777866492 | 10.56° C | 59% | 2147.4 hPa | - | - | - | - |
| 1777865582 | 8.89° C | 64% | 2147.4 hPa | - | - | - | - |
| 1777864673 | 8.33° C | 66% | 2147.4 hPa | - | - | - | - |
| 1777846787 | 7.78° C | 69% | 2147.4 hPa | - | - | - | - |
| 1777846484 | 7.78° C | 67% | 2147.4 hPa | - | - | - | - |
| 1777846180 | 8.33° C | 67% | 2147.4 hPa | - | - | - | - |
* Rain since midnight (hover to see other rain measurements)
** Current wind speed in m/s (hover to see current wind gust speed)